Terminal Aerodrome Forecast
Issued by NWS

Home | Current Version | Previous Version | Text Only | Print | Product List | Glossary On
Versions: 1 2 3 4 5 6 7 8 9 10 11 12 13 14 15 16 17 18 19 20
000
FTUS43 KGRB 271400 AAA
TAFMTW
TAF AMD
KMTW 271452Z 2715/2812 35013G18KT P6SM SCT035
      TEMPO 2716/2720 BKN035
     FM272000 36012G18KT P6SM SCT035
     FM280000 01007KT P6SM SKC=

USA.gov is the U.S. government's official web portal to all federal, state and local government web resources and services.